Time;durP1;ratioP1;P1;durP2;ratioP2;P2;SDS_P1;SDS_P2;PMS_P1;PMS_P2;Temp;Humidity;BMP_temperature;BMP_pressure;BME280_temperature;BME280_humidity;BME280_pressure;Samples;Min_cycle;Max_cycle;Signal;HPM_P1;HPM_P2
2022/02/06 00:02:27;;;;;;;2.20;2.00;;;6.80;1.00;;;;;;5124497;27;20495;-62
2022/02/06 00:04:54;;;;;;;3.67;2.10;;;6.80;1.00;;;;;;5125619;27;20488;-62
2022/02/06 00:07:20;;;;;;;3.03;1.97;;;6.80;1.00;;;;;;5129616;27;20968;-62
2022/02/06 00:09:47;;;;;;;4.23;1.70;;;6.90;1.00;;;;;;5124927;27;20450;-62
2022/02/06 00:12:13;;;;;;;2.50;1.50;;;7.00;1.00;;;;;;5123347;27;20496;-62
2022/02/06 00:14:38;;;;;;;2.37;2.13;;;6.90;1.00;;;;;;5130414;27;20461;-61
2022/02/06 00:17:05;;;;;;;2.30;1.93;;;6.90;1.00;;;;;;5129846;27;20435;-60
2022/02/06 00:19:31;;;;;;;5.87;1.93;;;7.00;1.00;;;;;;5127881;27;20222;-62
2022/02/06 00:21:57;;;;;;;3.53;1.87;;;7.00;1.00;;;;;;5132536;27;20468;-62
2022/02/06 00:24:33;;;;;;;3.07;2.13;;;7.00;1.00;;;;;;5122050;27;20473;-60
2022/02/06 00:27:05;;;;;;;3.97;2.00;;;7.00;1.00;;;;;;5120596;27;20181;-62
2022/02/06 00:32:09;;;;;;;3.23;1.77;;;7.00;1.00;;;;;;5128079;27;20430;-62
2022/02/06 00:35:14;;;;;;;2.33;1.60;;;7.10;1.00;;;;;;5131205;27;20536;-62
2022/02/06 00:40:16;;;;;;;7.50;2.20;;;7.20;1.00;;;;;;5125534;27;20450;-61
2022/02/06 00:42:41;;;;;;;2.33;1.60;;;7.20;1.00;;;;;;5126448;27;20448;-60
2022/02/06 00:45:07;;;;;;;2.27;1.57;;;7.20;1.00;;;;;;5128038;27;20499;-63
2022/02/06 00:47:33;;;;;;;2.77;2.00;;;7.40;1.00;;;;;;5127231;27;20212;-61
2022/02/06 00:49:59;;;;;;;5.07;2.17;;;7.50;1.00;;;;;;5132355;27;20446;-62
2022/02/06 00:52:32;;;;;;;5.03;1.40;;;7.50;1.00;;;;;;5126364;27;20196;-62
2022/02/06 00:54:59;;;;;;;2.20;1.30;;;7.50;1.00;;;;;;5124606;27;20474;-62
2022/02/06 00:57:26;;;;;;;2.57;1.80;;;7.60;1.00;;;;;;5127691;27;20505;-61
2022/02/06 00:59:52;;;;;;;1.80;1.50;;;7.60;1.00;;;;;;5125903;27;20439;-62
2022/02/06 01:02:18;;;;;;;3.37;1.70;;;7.50;1.00;;;;;;5123384;27;20893;-61
2022/02/06 01:04:43;;;;;;;3.33;1.23;;;7.60;1.00;;;;;;5126818;27;20955;-62
2022/02/06 01:07:09;;;;;;;5.00;1.83;;;7.50;1.00;;;;;;5125067;27;20185;-61
2022/02/06 01:09:35;;;;;;;3.00;1.40;;;7.50;1.00;;;;;;5119323;27;20189;-61
2022/02/06 01:12:00;;;;;;;3.43;1.50;;;7.60;1.00;;;;;;5123008;27;20264;-63
2022/02/06 01:17:15;;;;;;;4.60;1.93;;;7.60;1.00;;;;;;5130598;27;20444;-62
2022/02/06 01:19:58;;;;;;;3.50;2.23;;;7.50;1.00;;;;;;5128322;27;20438;-61
2022/02/06 01:22:26;;;;;;;4.80;1.70;;;;;;;;;;5108383;27;20499;-63
2022/02/06 01:25:01;;;;;;;3.07;1.10;;;7.50;1.00;;;;;;5123570;27;20904;-62
2022/02/06 01:27:38;;;;;;;1.77;1.30;;;7.60;1.00;;;;;;5128154;27;20438;-60
2022/02/06 01:30:18;;;;;;;4.37;1.57;;;7.60;1.00;;;;;;5128327;27;20444;-60
2022/02/06 01:32:52;;;;;;;5.93;1.60;;;7.50;1.00;;;;;;5126825;27;20510;-63
2022/02/06 01:35:26;;;;;;;2.90;1.93;;;7.20;1.00;;;;;;5128316;27;20541;-61
2022/02/06 01:38:08;;;;;;;4.90;1.77;;;7.20;1.00;;;;;;5117401;27;20529;-62
2022/02/06 01:40:53;;;;;;;5.70;1.70;;;7.10;1.00;;;;;;5126330;27;20442;-63
2022/02/06 01:43:24;;;;;;;3.10;1.73;;;7.20;1.00;;;;;;5122448;27;20450;-60
2022/02/06 01:46:10;;;;;;;4.80;1.67;;;7.00;1.00;;;;;;5130093;27;20469;-61
2022/02/06 02:00:40;;;;;;;4.00;2.00;;;7.00;1.00;;;;;;5080917;28;20497;-61
2022/02/06 02:13:24;;;;;;;4.30;1.60;;;6.90;1.00;;;;;;5122641;27;20469;-63
2022/02/06 02:16:21;;;;;;;5.30;2.47;;;6.90;1.00;;;;;;5106367;27;20443;-62
2022/02/06 02:30:33;;;;;;;3.87;1.83;;;6.70;1.00;;;;;;5116257;27;20476;-63
2022/02/06 02:33:05;;;;;;;3.07;1.93;;;6.70;1.00;;;;;;5124140;27;20438;-63
2022/02/06 02:46:31;;;;;;;4.27;1.90;;;6.50;1.00;;;;;;5123583;27;20512;-61
2022/02/06 02:48:58;;;;;;;4.20;2.10;;;6.60;1.00;;;;;;5125148;27;20431;-62
2022/02/06 02:51:28;;;;;;;2.67;2.07;;;6.60;1.00;;;;;;5128884;27;20438;-61
2022/02/06 02:53:58;;;;;;;2.70;2.50;;;6.60;1.00;;;;;;5111548;27;20482;-61
2022/02/06 02:56:38;;;;;;;6.33;2.03;;;6.60;1.00;;;;;;5130765;27;20446;-61
2022/02/06 02:59:16;;;;;;;3.80;1.70;;;6.70;1.00;;;;;;5105841;27;20438;-62
2022/02/06 03:01:54;;;;;;;8.00;3.33;;;6.70;1.00;;;;;;5130073;27;20467;-61
2022/02/06 03:04:19;;;;;;;5.53;2.00;;;6.70;1.00;;;;;;5124027;27;20941;-61
2022/02/06 03:06:45;;;;;;;4.47;2.03;;;6.70;1.00;;;;;;5125203;27;20471;-62
2022/02/06 03:09:10;;;;;;;4.67;1.87;;;6.70;1.00;;;;;;5124885;27;20178;-61
2022/02/06 03:11:36;;;;;;;2.30;1.80;;;6.70;1.00;;;;;;5122102;27;20643;-62
2022/02/06 03:14:09;;;;;;;2.17;1.60;;;6.80;1.00;;;;;;5126409;27;20217;-62
2022/02/06 03:16:42;;;;;;;2.73;1.70;;;6.90;1.00;;;;;;5125503;27;20173;-61
2022/02/06 03:19:15;;;;;;;5.60;1.87;;;6.90;1.00;;;;;;5124382;27;20442;-61
2022/02/06 03:21:42;;;;;;;3.90;2.10;;;7.00;1.00;;;;;;5121328;27;20556;-63
2022/02/06 03:26:47;;;;;;;4.10;1.60;;;7.10;1.00;;;;;;5126121;27;20438;-62
2022/02/06 03:29:15;;;;;;;2.03;1.83;;;7.10;1.00;;;;;;5125745;27;20446;-61
2022/02/06 03:31:40;;;;;;;4.10;1.87;;;7.00;1.00;;;;;;5123707;27;20451;-62
2022/02/06 03:34:07;;;;;;;4.23;1.87;;;7.00;1.00;;;;;;5123783;27;20462;-61
2022/02/06 03:36:32;;;;;;;3.53;1.80;;;7.00;1.00;;;;;;5124860;27;20186;-61
2022/02/06 03:38:58;;;;;;;4.77;2.10;;;7.00;1.00;;;;;;5128157;27;20439;-63
2022/02/06 03:41:27;;;;;;;5.87;1.60;;;7.00;1.00;;;;;;5122262;27;20190;-63
2022/02/06 03:44:07;;;;;;;3.23;1.83;;;7.30;1.00;;;;;;5130616;27;20196;-63
2022/02/06 03:46:40;;;;;;;3.23;1.80;;;7.00;1.00;;;;;;5128367;27;21359;-62
2022/02/06 03:49:12;;;;;;;2.93;1.57;;;7.00;1.00;;;;;;5129855;28;20772;-63
2022/02/06 03:51:38;;;;;;;5.00;1.93;;;7.00;1.00;;;;;;5124977;28;20869;-61
2022/02/06 03:54:10;;;;;;;2.07;1.60;;;7.20;1.00;;;;;;5107136;28;20486;-61
2022/02/06 03:56:36;;;;;;;5.07;1.70;;;7.20;1.00;;;;;;5128929;28;20177;-62
2022/02/06 03:59:03;;;;;;;6.93;2.20;;;7.30;1.00;;;;;;5108913;28;20519;-60
2022/02/06 04:01:30;;;;;;;1.40;1.30;;;7.30;1.00;;;;;;5129056;28;20443;-59
2022/02/06 04:03:55;;;;;;;7.07;1.80;;;7.30;1.00;;;;;;5125790;27;20451;-60
2022/02/06 04:06:22;;;;;;;3.47;1.80;;;7.40;1.00;;;;;;5126208;28;20530;-62
2022/02/06 04:08:49;;;;;;;6.50;1.60;;;7.50;1.00;;;;;;5124998;28;20212;-61
2022/02/06 04:11:20;;;;;;;5.07;2.10;;;7.50;1.00;;;;;;5121849;28;20513;-63
2022/02/06 04:14:05;;;;;;;2.77;1.63;;;7.40;1.00;;;;;;5128281;28;20466;-63
2022/02/06 04:16:49;;;;;;;2.37;1.70;;;7.50;1.00;;;;;;5124794;28;20438;-62
2022/02/06 04:19:18;;;;;;;2.47;1.33;;;7.50;1.00;;;;;;5125718;27;20515;-60
2022/02/06 04:21:44;;;;;;;2.23;1.60;;;7.50;1.00;;;;;;5120824;27;20471;-62
2022/02/06 04:24:10;;;;;;;2.77;1.67;;;7.50;1.00;;;;;;5114878;28;20474;-62
2022/02/06 04:26:35;;;;;;;4.03;1.60;;;7.40;1.00;;;;;;5118517;28;20201;-62
2022/02/06 04:29:01;;;;;;;3.73;1.27;;;7.50;1.00;;;;;;5127894;28;20193;-62
2022/02/06 04:31:26;;;;;;;4.60;1.60;;;7.50;1.00;;;;;;5124576;28;20217;-62
2022/02/06 04:33:52;;;;;;;3.67;1.97;;;7.50;1.00;;;;;;5126731;27;20223;-59
2022/02/06 04:36:19;;;;;;;3.40;1.30;;;7.50;1.00;;;;;;5121364;28;20696;-62
2022/02/06 04:39:06;;;;;;;1.77;1.33;;;7.40;1.00;;;;;;5124618;28;20557;-62
2022/02/06 04:44:33;;;;;;;2.00;1.30;;;7.40;1.00;;;;;;5128385;27;20454;-62
2022/02/06 05:11:46;;;;;;;1.60;1.30;;;7.30;1.00;;;;;;5117553;27;20461;-62
2022/02/06 05:19:50;;;;;;;2.07;1.50;;;7.10;1.00;;;;;;5123221;27;20246;-61
2022/02/06 05:30:20;;;;;;;6.03;1.70;;;7.30;1.00;;;;;;5124566;27;20450;-60
2022/02/06 05:35:22;;;;;;;2.93;1.40;;;7.30;1.00;;;;;;5124419;27;20481;-60
2022/02/06 05:37:47;;;;;;;2.07;1.67;;;7.30;1.00;;;;;;5125713;27;20580;-59
2022/02/06 05:40:13;;;;;;;2.20;1.60;;;7.30;1.00;;;;;;5102289;27;20441;-61
2022/02/06 05:42:39;;;;;;;1.80;1.23;;;7.40;1.00;;;;;;5106227;27;20295;-61
2022/02/06 05:45:05;;;;;;;3.37;1.47;;;7.40;1.00;;;;;;5117996;27;20222;-61
2022/02/06 05:47:33;;;;;;;1.30;0.90;;;7.40;1.00;;;;;;5128399;27;20180;-61
2022/02/06 05:49:58;;;;;;;1.77;1.27;;;7.50;1.00;;;;;;5122031;27;20443;-61
2022/02/06 05:52:25;;;;;;;2.50;1.20;;;7.50;1.00;;;;;;5125395;27;21028;-63
2022/02/06 05:54:51;;;;;;;2.30;1.30;;;7.50;1.00;;;;;;5125842;27;20237;-63
2022/02/06 05:57:17;;;;;;;1.83;1.40;;;7.50;1.00;;;;;;5125332;27;20863;-61
2022/02/06 05:59:43;;;;;;;1.83;0.93;;;7.60;1.00;;;;;;5126718;27;20475;-62
2022/02/06 06:02:08;;;;;;;1.50;1.03;;;7.60;1.00;;;;;;5121549;27;20513;-62
2022/02/06 06:04:34;;;;;;;2.03;1.00;;;7.60;1.00;;;;;;5127364;27;20188;-61
2022/02/06 06:07:01;;;;;;;1.43;1.10;;;7.70;1.00;;;;;;5113047;27;20250;-61
2022/02/06 06:09:26;;;;;;;3.10;0.97;;;7.70;1.00;;;;;;5119273;27;20536;-62
2022/02/06 06:11:52;;;;;;;1.17;0.80;;;7.80;1.00;;;;;;5114955;27;20514;-61
2022/02/06 06:14:17;;;;;;;1.00;0.70;;;7.80;1.00;;;;;;5121540;27;20277;-60
2022/02/06 06:16:43;;;;;;;1.50;1.10;;;7.90;1.00;;;;;;5123885;27;20181;-61
2022/02/06 06:19:09;;;;;;;2.73;1.10;;;7.90;1.00;;;;;;5106926;27;20185;-61
2022/02/06 06:21:39;;;;;;;1.27;0.90;;;7.90;1.00;;;;;;5121756;27;20261;-62
2022/02/06 06:24:05;;;;;;;1.73;0.87;;;7.90;1.00;;;;;;5120145;27;20193;-61
2022/02/06 06:26:35;;;;;;;1.77;1.43;;;8.00;1.00;;;;;;5124032;27;20438;-62
2022/02/06 06:29:01;;;;;;;2.53;0.80;;;7.90;1.00;;;;;;5121559;27;20473;-61
2022/02/06 06:31:27;;;;;;;0.80;0.60;;;8.00;1.00;;;;;;5124076;27;20470;-62
2022/02/06 06:33:53;;;;;;;1.00;0.60;;;7.90;1.00;;;;;;5126340;27;20205;-62
2022/02/06 06:36:21;;;;;;;2.80;1.00;;;8.00;1.00;;;;;;5125681;27;20450;-62
2022/02/06 06:38:50;;;;;;;0.47;0.43;;;8.00;1.00;;;;;;5125783;28;20211;-61
2022/02/06 06:41:16;;;;;;;5.80;0.80;;;8.10;1.00;;;;;;5119588;27;20435;-61
2022/02/06 06:43:41;;;;;;;1.40;0.67;;;8.10;1.00;;;;;;5103283;28;20451;-60
2022/02/06 06:46:07;;;;;;;1.43;0.90;;;8.10;1.00;;;;;;5125988;28;20478;-61
2022/02/06 06:48:32;;;;;;;1.10;0.70;;;8.00;1.00;;;;;;5125807;28;20189;-61
2022/02/06 06:50:58;;;;;;;2.63;0.87;;;8.10;1.00;;;;;;5127754;28;20268;-61
2022/02/06 06:53:24;;;;;;;1.53;0.83;;;8.00;1.00;;;;;;5123586;27;20188;-62
2022/02/06 06:55:57;;;;;;;2.47;0.93;;;8.00;1.00;;;;;;5122119;27;20182;-62
2022/02/06 06:58:34;;;;;;;0.80;0.80;;;8.00;1.00;;;;;;5124931;27;20181;-62
2022/02/06 07:03:26;;;;;;;0.93;0.83;;;8.10;1.00;;;;;;5124544;28;20776;-61
2022/02/06 07:05:52;;;;;;;1.70;1.00;;;8.00;1.00;;;;;;5119889;28;20182;-61
2022/02/06 07:08:19;;;;;;;1.07;0.57;;;8.00;1.00;;;;;;5115842;27;20447;-63
2022/02/06 07:10:46;;;;;;;1.37;0.90;;;8.00;1.00;;;;;;5119810;27;20451;-62
2022/02/06 07:13:13;;;;;;;0.83;0.73;;;7.90;1.00;;;;;;5119721;28;20830;-63
2022/02/06 07:15:42;;;;;;;2.20;0.93;;;7.80;1.00;;;;;;5122118;28;20470;-62
2022/02/06 07:18:07;;;;;;;1.63;0.67;;;7.70;1.00;;;;;;5124443;28;20543;-61
2022/02/06 07:20:35;;;;;;;1.73;1.33;;;7.90;1.00;;;;;;5118428;28;21002;-62
2022/02/06 07:23:01;;;;;;;1.17;0.80;;;7.90;1.00;;;;;;5121967;27;20192;-62
2022/02/06 07:25:26;;;;;;;2.70;1.30;;;7.90;1.00;;;;;;5124537;28;20446;-63
2022/02/06 07:27:53;;;;;;;1.63;0.90;;;7.90;1.00;;;;;;5121060;28;20330;-61
2022/02/06 07:30:19;;;;;;;2.30;1.10;;;7.90;1.00;;;;;;5122334;28;20273;-61
2022/02/06 07:32:45;;;;;;;2.63;1.13;;;7.90;1.00;;;;;;5119581;27;20442;-61
2022/02/06 07:35:12;;;;;;;1.17;0.97;;;7.90;1.00;;;;;;5122375;28;20466;-61
2022/02/06 07:37:44;;;;;;;6.40;1.10;;;8.00;1.00;;;;;;5125235;27;20439;-61
2022/02/06 07:40:11;;;;;;;4.83;0.83;;;7.90;1.00;;;;;;5121222;27;20479;-61
2022/02/06 07:42:37;;;;;;;2.20;1.43;;;7.90;1.00;;;;;;5122685;27;20778;-63
2022/02/06 07:45:04;;;;;;;2.13;1.20;;;7.90;1.00;;;;;;5111133;27;20460;-62
2022/02/06 07:47:29;;;;;;;1.00;0.80;;;8.10;1.00;;;;;;5128890;27;20174;-62
2022/02/06 07:49:57;;;;;;;1.37;0.90;;;8.00;1.00;;;;;;5127673;27;20521;-61
2022/02/06 07:52:25;;;;;;;3.17;1.20;;;8.00;1.00;;;;;;5124999;27;20219;-61
2022/02/06 07:54:52;;;;;;;3.23;1.10;;;8.00;1.00;;;;;;5118436;27;20463;-64
2022/02/06 07:57:18;;;;;;;5.40;2.53;;;7.90;1.00;;;;;;5124685;27;20434;-64
2022/02/06 07:59:44;;;;;;;1.50;0.90;;;8.00;1.00;;;;;;5130564;27;20499;-63
2022/02/06 08:02:09;;;;;;;2.20;1.10;;;7.90;1.00;;;;;;5126327;27;20434;-64
2022/02/06 08:04:36;;;;;;;5.10;1.93;;;8.90;1.00;;;;;;5106125;27;20185;-64
2022/02/06 08:07:03;;;;;;;4.03;1.77;;;8.00;1.00;;;;;;5129421;27;20326;-62
2022/02/06 08:12:14;;;;;;;3.20;1.07;;;;;;;;;;5121968;27;20452;-64
2022/02/06 08:14:50;;;;;;;1.73;1.00;;;8.00;1.00;;;;;;5130330;27;20466;-64
2022/02/06 08:17:19;;;;;;;2.00;1.00;;;8.00;1.00;;;;;;5128844;27;20430;-64
2022/02/06 08:19:46;;;;;;;2.47;0.80;;;8.00;1.00;;;;;;5130599;27;20431;-64
2022/02/06 08:22:11;;;;;;;2.87;1.00;;;8.00;1.00;;;;;;5129691;27;20431;-64
2022/02/06 08:24:38;;;;;;;1.07;0.90;;;;;;;;;;5130767;27;20405;-64
2022/02/06 08:27:03;;;;;;;0.90;0.60;;;8.30;1.00;;;;;;5130711;27;20256;-64
2022/02/06 08:29:29;;;;;;;4.00;1.10;;;8.40;1.00;;;;;;5131290;27;20532;-64
2022/02/06 08:31:55;;;;;;;1.37;0.80;;;8.50;1.00;;;;;;5111455;27;20435;-60
2022/02/06 08:34:20;;;;;;;2.60;1.20;;;8.50;1.00;;;;;;5129833;27;20272;-61
2022/02/06 08:36:46;;;;;;;0.70;0.70;;;;;;;;;;5126964;27;20212;-58
2022/02/06 08:39:12;;;;;;;1.13;0.80;;;8.60;1.00;;;;;;5128114;27;20196;-60
2022/02/06 08:41:37;;;;;;;1.37;0.80;;;8.60;1.00;;;;;;5129560;27;20446;-60
2022/02/06 08:44:04;;;;;;;2.33;1.60;;;8.70;1.00;;;;;;5129926;27;20645;-60
2022/02/06 08:46:30;;;;;;;2.37;0.90;;;8.80;1.00;;;;;;5117790;27;20228;-60
2022/02/06 08:48:56;;;;;;;4.83;0.97;;;;;;;;;;5128489;27;20455;-60
2022/02/06 08:51:22;;;;;;;2.10;0.93;;;9.00;1.00;;;;;;5120174;27;20449;-59
2022/02/06 08:53:48;;;;;;;1.23;0.70;;;9.10;1.00;;;;;;5106143;27;20465;-60
2022/02/06 08:56:13;;;;;;;2.10;1.30;;;9.00;1.00;;;;;;5123872;27;20442;-60
2022/02/06 08:58:39;;;;;;;1.60;0.87;;;9.00;1.00;;;;;;5129213;27;20305;-60
2022/02/06 09:01:05;;;;;;;1.80;1.13;;;8.90;1.00;;;;;;5124267;27;20301;-60
2022/02/06 09:03:31;;;;;;;3.33;0.90;;;8.90;1.00;;;;;;5125187;27;20551;-60
2022/02/06 09:05:56;;;;;;;4.37;1.00;;;9.00;1.00;;;;;;5125545;27;20628;-60
2022/02/06 09:08:22;;;;;;;2.70;1.30;;;9.00;1.00;;;;;;5122023;27;20538;-60
2022/02/06 09:10:48;;;;;;;1.97;1.00;;;9.10;1.00;;;;;;5111526;27;20213;-60
2022/02/06 09:13:14;;;;;;;1.80;1.00;;;9.10;1.00;;;;;;5110165;27;20180;-60
2022/02/06 09:15:40;;;;;;;1.10;1.00;;;9.10;1.00;;;;;;5119845;27;20940;-60
2022/02/06 09:18:05;;;;;;;2.33;1.07;;;9.30;1.00;;;;;;5129405;27;20449;-60
2022/02/06 09:20:32;;;;;;;1.37;1.00;;;9.40;1.00;;;;;;5122640;27;20178;-60
2022/02/06 09:23:00;;;;;;;2.40;1.00;;;9.30;1.00;;;;;;5129056;27;20232;-61
2022/02/06 09:25:25;;;;;;;2.77;1.23;;;9.20;1.00;;;;;;5122829;27;20446;-60
2022/02/06 09:27:51;;;;;;;1.07;0.80;;;9.20;1.00;;;;;;5128170;27;20450;-61
2022/02/06 09:30:20;;;;;;;2.63;0.97;;;9.20;1.00;;;;;;5123669;27;20178;-60
2022/02/06 09:35:11;;;;;;;2.50;0.73;;;9.20;1.00;;;;;;5130624;27;20474;-60
2022/02/06 09:37:37;;;;;;;0.83;0.60;;;9.20;1.00;;;;;;5130570;27;20178;-59
2022/02/06 09:40:09;;;;;;;3.10;1.10;;;9.30;1.00;;;;;;5111221;27;20268;-59
2022/02/06 09:42:36;;;;;;;1.57;0.90;;;9.20;1.00;;;;;;5132817;27;20431;-59
2022/02/06 09:45:03;;;;;;;1.80;0.77;;;9.30;1.00;;;;;;5126162;27;20430;-59
2022/02/06 09:47:31;;;;;;;1.30;0.90;;;9.50;1.00;;;;;;5121335;27;20474;-59
2022/02/06 09:49:57;;;;;;;4.10;1.30;;;9.70;1.00;;;;;;5120647;27;20505;-58
2022/02/06 09:52:25;;;;;;;1.47;1.10;;;9.60;1.00;;;;;;5128060;27;20443;-59
2022/02/06 09:54:56;;;;;;;1.40;0.80;;;9.60;1.00;;;;;;5124025;27;20429;-58
2022/02/06 09:57:28;;;;;;;3.00;1.40;;;9.60;1.00;;;;;;5111060;27;20564;-56
2022/02/06 09:59:55;;;;;;;3.23;1.00;;;9.60;1.00;;;;;;5132545;27;20758;-59
2022/02/06 10:02:25;;;;;;;2.97;0.93;;;9.70;1.00;;;;;;5131177;27;20439;-60
2022/02/06 10:04:53;;;;;;;1.17;0.77;;;9.70;1.00;;;;;;5130800;27;20450;-60
2022/02/06 10:07:41;;;;;;;2.50;0.80;;;9.90;1.00;;;;;;5124043;27;20443;-59
2022/02/06 10:10:09;;;;;;;6.23;1.03;;;9.80;1.00;;;;;;5103895;27;20439;-59
2022/02/06 10:12:38;;;;;;;2.13;0.90;;;9.80;1.00;;;;;;5128443;27;20426;-58
2022/02/06 10:15:11;;;;;;;3.97;1.00;;;9.80;1.00;;;;;;5122089;27;20455;-60
2022/02/06 10:17:37;;;;;;;3.73;0.77;;;9.80;1.00;;;;;;5118521;27;20409;-60
2022/02/06 10:20:23;;;;;;;2.43;1.20;;;9.80;1.00;;;;;;5121848;27;20439;-60
2022/02/06 10:22:55;;;;;;;1.33;1.10;;;9.90;1.00;;;;;;5124035;27;20409;-60
2022/02/06 10:25:23;;;;;;;1.60;1.43;;;10.00;1.00;;;;;;5122884;27;20438;-60
2022/02/06 10:27:58;;;;;;;0.90;0.63;;;10.00;1.00;;;;;;5125715;27;20409;-60
2022/02/06 10:30:45;;;;;;;1.93;1.40;;;9.90;1.00;;;;;;5120905;27;20438;-59
2022/02/06 10:33:18;;;;;;;1.37;1.10;;;9.90;1.00;;;;;;5123237;27;20421;-60
2022/02/06 10:35:49;;;;;;;0.53;0.53;;;9.90;1.00;;;;;;5126898;27;20459;-60
2022/02/06 10:38:20;;;;;;;1.30;0.80;;;9.90;1.00;;;;;;5125465;27;20523;-60
2022/02/06 10:41:09;;;;;;;2.90;1.17;;;10.00;1.00;;;;;;5129898;27;20756;-59
2022/02/06 10:43:36;;;;;;;0.50;0.50;;;10.00;1.00;;;;;;5123592;28;20862;-60
2022/02/06 10:46:10;;;;;;;1.30;1.20;;;10.00;1.00;;;;;;5124609;27;20783;-59
2022/02/06 10:48:47;;;;;;;3.13;1.10;;;9.90;1.00;;;;;;5122114;28;20912;-59
2022/02/06 10:51:51;;;;;;;1.63;0.90;;;10.00;1.00;;;;;;5124823;27;20491;-60
2022/02/06 10:54:18;;;;;;;3.30;1.10;;;10.40;1.00;;;;;;5127372;28;20462;-60
2022/02/06 10:57:10;;;;;;;1.10;1.00;;;10.50;1.00;;;;;;5127325;27;20523;-60
2022/02/06 10:59:53;;;;;;;2.37;1.00;;;10.50;1.00;;;;;;5122043;28;20405;-60
2022/02/06 11:02:29;;;;;;;2.13;1.13;;;10.50;1.00;;;;;;5115499;28;20437;-60
2022/02/06 11:04:56;;;;;;;2.50;0.60;;;10.60;1.00;;;;;;5125463;28;20414;-60
2022/02/06 11:07:21;;;;;;;11.13;1.10;;;10.50;1.00;;;;;;5130411;28;20427;-60
2022/02/06 11:09:48;;;;;;;1.33;0.60;;;10.50;1.00;;;;;;5130809;28;20427;-61
2022/02/06 11:12:15;;;;;;;2.50;1.10;;;10.70;1.00;;;;;;5127370;27;20178;-60
2022/02/06 11:14:49;;;;;;;3.53;0.80;;;10.80;1.00;;;;;;5104513;27;20516;-60
2022/02/06 11:17:16;;;;;;;1.43;0.70;;;;;;;;;;5114881;27;20438;-61
2022/02/06 11:19:58;;;;;;;2.40;0.90;;;10.60;1.00;;;;;;5130210;27;20430;-60
2022/02/06 11:22:24;;;;;;;3.33;0.80;;;10.70;1.00;;;;;;5125091;27;20446;-61
2022/02/06 11:24:50;;;;;;;2.30;0.70;;;11.00;1.00;;;;;;5130234;27;20453;-61
2022/02/06 11:27:16;;;;;;;1.10;1.00;;;11.00;1.00;;;;;;5139706;27;20186;-60
2022/02/06 11:29:43;;;;;;;0.50;0.50;;;10.80;1.00;;;;;;5133133;27;20455;-60
2022/02/06 11:32:10;;;;;;;0.90;0.70;;;10.60;1.00;;;;;;5130475;27;20905;-61
2022/02/06 11:34:41;;;;;;;1.10;0.70;;;10.60;1.00;;;;;;5131082;27;20942;-60
2022/02/06 11:46:36;;;;;;;1.03;0.63;;;10.80;1.00;;;;;;5133393;27;20493;-60
2022/02/06 11:49:16;;;;;;;1.47;0.90;;;10.90;1.00;;;;;;5115308;27;20591;-61
2022/02/06 11:51:53;;;;;;;0.60;0.60;;;10.70;1.00;;;;;;5125471;27;20582;-61
2022/02/06 11:54:33;;;;;;;6.83;0.97;;;10.50;1.00;;;;;;5133455;27;20789;-61
2022/02/06 11:57:26;;;;;;;2.57;0.97;;;10.30;1.00;;;;;;5137626;27;20452;-60
2022/02/06 12:00:16;;;;;;;0.97;0.70;;;10.40;1.00;;;;;;5109352;27;20792;-60
2022/02/06 12:02:50;;;;;;;1.53;0.93;;;10.70;1.00;;;;;;5109842;27;20966;-60
2022/02/06 12:05:30;;;;;;;0.80;0.60;;;10.40;1.00;;;;;;5113604;27;20824;-60
2022/02/06 12:08:03;;;;;;;0.70;0.53;;;10.50;1.00;;;;;;5126998;27;20523;-60
2022/02/06 12:10:35;;;;;;;0.80;0.80;;;10.40;1.00;;;;;;5132706;27;20496;-60
2022/02/06 12:15:51;;;;;;;1.47;0.80;;;10.60;1.00;;;;;;5126246;27;20469;-60
2022/02/06 12:18:30;;;;;;;0.73;0.50;;;10.50;1.00;;;;;;5128130;27;20439;-63
2022/02/06 12:21:14;;;;;;;0.50;0.50;;;10.30;1.00;;;;;;5126515;27;20413;-61
2022/02/06 12:23:57;;;;;;;0.90;0.90;;;10.40;1.00;;;;;;5129438;27;20835;-62
2022/02/06 12:26:30;;;;;;;0.50;0.50;;;10.50;1.00;;;;;;5132323;27;20445;-62
2022/02/06 12:29:08;;;;;;;0.57;0.57;;;10.50;1.00;;;;;;5114407;27;20536;-62
2022/02/06 12:31:54;;;;;;;1.23;0.60;;;10.60;1.00;;;;;;5132852;27;20446;-62
2022/02/06 12:37:34;;;;;;;2.57;0.73;;;10.50;1.00;;;;;;5133722;27;20417;-62
2022/02/06 12:40:12;;;;;;;0.77;0.77;;;10.50;1.00;;;;;;5125634;27;20449;-62
2022/02/06 12:42:40;;;;;;;0.60;0.50;;;10.50;1.00;;;;;;5125771;27;20582;-62
2022/02/06 12:45:09;;;;;;;1.37;1.00;;;10.50;1.00;;;;;;5118279;27;20558;-62
2022/02/06 12:47:40;;;;;;;0.63;0.63;;;10.60;1.00;;;;;;5122024;27;20524;-62
2022/02/06 12:50:31;;;;;;;0.70;0.60;;;10.60;1.00;;;;;;5124450;27;20851;-62
2022/02/06 12:52:58;;;;;;;1.10;0.50;;;10.50;1.00;;;;;;5130414;27;20435;-62
2022/02/06 12:55:28;;;;;;;0.60;0.40;;;10.40;1.00;;;;;;5127034;27;20986;-62
2022/02/06 12:57:55;;;;;;;0.53;0.53;;;10.40;1.00;;;;;;5135690;27;20416;-62
2022/02/06 13:00:45;;;;;;;1.07;0.60;;;10.40;1.00;;;;;;5132595;27;20438;-62
2022/02/06 13:03:19;;;;;;;1.07;0.50;;;10.30;1.00;;;;;;5131391;27;20434;-61
2022/02/06 13:06:01;;;;;;;0.67;0.43;;;10.20;1.00;;;;;;5132337;27;20413;-61
2022/02/06 13:08:28;;;;;;;0.80;0.40;;;10.20;1.00;;;;;;5131769;27;20435;-61
2022/02/06 13:11:08;;;;;;;0.70;0.60;;;10.20;1.00;;;;;;5130571;27;20463;-61
2022/02/06 13:16:17;;;;;;;1.13;0.60;;;10.40;1.00;;;;;;5126630;27;20460;-61
2022/02/06 13:19:18;;;;;;;0.40;0.33;;;10.30;1.00;;;;;;5112545;27;20442;-60
2022/02/06 13:22:12;;;;;;;0.50;0.30;;;10.40;1.00;;;;;;5131787;27;20443;-60
2022/02/06 13:30:01;;;;;;;1.60;0.60;;;10.40;1.00;;;;;;5130658;27;20533;-60
2022/02/06 13:37:45;;;;;;;0.83;0.43;;;10.20;1.00;;;;;;5132020;27;20430;-60
2022/02/06 13:40:17;;;;;;;0.60;0.30;;;10.10;1.00;;;;;;5127629;27;20431;-60
2022/02/06 13:43:22;;;;;;;0.40;0.30;;;10.10;1.00;;;;;;5128145;27;20949;-61
2022/02/06 13:45:50;;;;;;;0.40;0.30;;;10.10;1.00;;;;;;5079050;27;20800;-61
2022/02/06 13:48:19;;;;;;;0.70;0.60;;;10.20;1.00;;;;;;5129232;27;20493;-69
2022/02/06 13:50:50;;;;;;;0.40;0.30;;;10.20;1.00;;;;;;5126217;27;20784;-62
2022/02/06 13:53:19;;;;;;;0.60;0.50;;;10.30;1.00;;;;;;5129755;27;20933;-62
2022/02/06 13:55:56;;;;;;;1.87;0.50;;;10.50;1.00;;;;;;5127588;27;20582;-62
2022/02/06 13:58:26;;;;;;;1.40;0.50;;;10.50;1.00;;;;;;5118996;27;20524;-62
2022/02/06 14:00:56;;;;;;;1.13;0.30;;;10.50;1.00;;;;;;5115256;27;20507;-62
2022/02/06 14:03:23;;;;;;;0.60;0.40;;;10.50;1.00;;;;;;5115635;27;21028;-61
2022/02/06 14:05:50;;;;;;;0.77;0.47;;;10.50;1.00;;;;;;5116007;27;20530;-64
2022/02/06 14:08:20;;;;;;;2.07;0.40;;;10.60;1.00;;;;;;5121508;27;20566;-62
2022/02/06 14:11:07;;;;;;;0.50;0.40;;;10.50;1.00;;;;;;5122099;27;20926;-63
2022/02/06 14:13:35;;;;;;;2.00;0.40;;;10.40;1.00;;;;;;5127747;27;20533;-61
2022/02/06 14:16:12;;;;;;;0.40;0.30;;;10.50;1.00;;;;;;5098793;27;20464;-61
2022/02/06 14:18:48;;;;;;;0.40;0.30;;;10.50;1.00;;;;;;5106220;27;21139;-61
2022/02/06 14:21:14;;;;;;;0.50;0.40;;;10.60;1.00;;;;;;5123142;27;20442;-62
2022/02/06 14:23:40;;;;;;;0.60;0.50;;;10.70;1.00;;;;;;5122082;27;20982;-62
2022/02/06 14:26:16;;;;;;;0.57;0.37;;;10.50;1.00;;;;;;5126099;27;20466;-61
2022/02/06 14:28:48;;;;;;;0.40;0.30;;;10.50;1.00;;;;;;5127906;27;20192;-62
2022/02/06 14:31:27;;;;;;;0.40;0.30;;;10.40;1.00;;;;;;5128884;27;20470;-61
2022/02/06 14:34:19;;;;;;;0.77;0.40;;;10.40;1.00;;;;;;5127094;27;20521;-62
2022/02/06 14:37:06;;;;;;;1.03;0.30;;;10.50;1.00;;;;;;5123528;27;20433;-60
2022/02/06 14:39:35;;;;;;;0.60;0.43;;;10.50;1.00;;;;;;5128758;27;20572;-61
2022/02/06 14:42:18;;;;;;;0.60;0.60;;;10.50;1.00;;;;;;5126521;28;20935;-61
2022/02/06 14:44:43;;;;;;;0.50;0.20;;;10.60;1.00;;;;;;5125979;28;20405;-62
2022/02/06 14:47:09;;;;;;;0.30;0.20;;;;;;;;;;5130843;27;20462;-61
2022/02/06 14:49:35;;;;;;;0.50;0.50;;;10.40;1.00;;;;;;5130226;27;20182;-61
2022/02/06 14:52:02;;;;;;;0.30;0.20;;;10.30;1.00;;;;;;5131936;27;20417;-61
2022/02/06 14:54:32;;;;;;;0.50;0.43;;;;;;;;;;5133983;27;20677;-61
2022/02/06 14:56:58;;;;;;;0.53;0.33;;;10.40;1.00;;;;;;5129432;27;20581;-63
2022/02/06 14:59:24;;;;;;;0.90;0.50;;;10.30;1.00;;;;;;5130779;27;20530;-63
2022/02/06 15:01:54;;;;;;;0.40;0.30;;;10.30;1.00;;;;;;5130467;27;20438;-63
2022/02/06 15:04:21;;;;;;;0.30;0.30;;;10.30;1.00;;;;;;5133363;27;20181;-62
2022/02/06 15:06:47;;;;;;;0.30;0.20;;;10.30;1.00;;;;;;5132358;27;20435;-63
2022/02/06 15:09:13;;;;;;;0.30;0.30;;;10.20;1.00;;;;;;5131942;27;20465;-63
2022/02/06 15:11:38;;;;;;;0.50;0.30;;;10.10;1.00;;;;;;5129806;27;20189;-63
2022/02/06 15:14:04;;;;;;;0.70;0.30;;;10.10;1.00;;;;;;5131737;27;20190;-62
2022/02/06 15:16:33;;;;;;;0.60;0.37;;;10.10;1.00;;;;;;5128865;27;20202;-62
2022/02/06 15:19:02;;;;;;;0.40;0.40;;;10.20;1.00;;;;;;5127378;27;20249;-62
2022/02/06 15:21:27;;;;;;;0.40;0.30;;;10.00;1.00;;;;;;5127135;27;20434;-62
2022/02/06 15:23:53;;;;;;;0.87;0.60;;;9.90;1.00;;;;;;5129570;27;20429;-62
2022/02/06 15:26:19;;;;;;;0.93;0.40;;;;;;;;;;5130207;27;20189;-62
2022/02/06 15:28:49;;;;;;;0.30;0.20;;;9.90;1.00;;;;;;5124796;27;20174;-62
2022/02/06 15:31:16;;;;;;;0.63;0.30;;;9.90;1.00;;;;;;5132567;27;20439;-62
2022/02/06 15:33:42;;;;;;;0.40;0.30;;;;;;;;;;5128713;27;20439;-63
2022/02/06 15:36:08;;;;;;;0.40;0.40;;;9.70;1.00;;;;;;5110386;27;20447;-62
2022/02/06 15:38:36;;;;;;;0.40;0.40;;;9.70;1.00;;;;;;5128062;27;20494;-62
2022/02/06 15:41:01;;;;;;;0.30;0.30;;;9.70;1.00;;;;;;5127301;27;20481;-62